Time;durP1;ratioP1;P1;durP2;ratioP2;P2;SDS_P1;SDS_P2;PMS_P1;PMS_P2;Temp;Humidity;BMP_temperature;BMP_pressure;BME280_temperature;BME280_humidity;BME280_pressure;Samples;Min_cycle;Max_cycle;Signal;HPM_P1;HPM_P2
2023/12/04 00:01:26;;;;;;;;;;;0.60;99.90;;;;;;4957147;28;19929;-70
2023/12/04 00:03:52;;;;;;;;;;;0.70;99.90;;;;;;4984019;28;19955;-70
2023/12/04 00:06:18;;;;;;;;;;;0.60;99.90;;;;;;4958432;28;19932;-69
2023/12/04 00:08:44;;;;;;;;;;;0.60;99.90;;;;;;4970041;28;20407;-71
2023/12/04 00:11:10;;;;;;;;;;;0.60;99.90;;;;;;4939599;28;19956;-70
2023/12/04 00:13:36;;;;;;;;;;;0.60;99.90;;;;;;4978778;28;20910;-70
2023/12/04 00:16:02;;;;;;;;;;;0.60;99.90;;;;;;4957640;28;19998;-71
2023/12/04 00:18:28;;;;;;;;;;;0.60;99.90;;;;;;4984212;28;19932;-70
2023/12/04 00:20:54;;;;;;;;;;;0.60;99.90;;;;;;4967995;28;19979;-71
2023/12/04 00:23:20;;;;;;;;;;;0.60;99.90;;;;;;4994951;28;19925;-70
2023/12/04 00:25:46;;;;;;;;;;;0.60;99.90;;;;;;4936603;28;19933;-70
2023/12/04 00:28:12;;;;;;;;;;;0.60;99.90;;;;;;5001671;28;19925;-70
2023/12/04 00:30:38;;;;;;;;;;;0.60;99.90;;;;;;4978047;28;19933;-72
2023/12/04 00:33:04;;;;;;;;;;;0.60;99.90;;;;;;4938668;28;20452;-71
2023/12/04 00:35:30;;;;;;;;;;;0.60;99.90;;;;;;4980086;28;19952;-71
2023/12/04 00:37:56;;;;;;;;;;;0.60;99.90;;;;;;4951509;28;20391;-70
2023/12/04 00:40:21;;;;;;;;;;;0.60;99.90;;;;;;4981355;28;19925;-70
2023/12/04 00:42:47;;;;;;;;;;;0.60;99.90;;;;;;4967541;28;19928;-70
2023/12/04 00:45:13;;;;;;;;;;;0.60;99.90;;;;;;4980432;28;19940;-70
2023/12/04 00:47:39;;;;;;;;;;;0.60;99.90;;;;;;4957636;28;19940;-71
2023/12/04 00:50:05;;;;;;;;;;;0.60;99.90;;;;;;4979998;28;19937;-71
2023/12/04 00:52:31;;;;;;;;;;;0.50;99.90;;;;;;4970945;28;19925;-71
2023/12/04 00:54:57;;;;;;;;;;;0.60;99.90;;;;;;4984259;28;21195;-73
2023/12/04 00:57:23;;;;;;;;;;;0.60;99.90;;;;;;4953721;28;21040;-72
2023/12/04 00:59:49;;;;;;;;;;;0.60;99.90;;;;;;4985039;28;19932;-71
2023/12/04 01:02:15;;;;;;;;;;;0.60;99.90;;;;;;4978219;28;20436;-73
2023/12/04 01:04:41;;;;;;;;;;;0.60;99.90;;;;;;4995185;28;19932;-72
2023/12/04 01:07:07;;;;;;;;;;;0.50;99.90;;;;;;4962618;28;19925;-72
2023/12/04 01:09:36;;;;;;;;;;;0.60;99.90;;;;;;4978549;28;19933;-71
2023/12/04 01:12:02;;;;;;;;;;;0.60;99.90;;;;;;4956137;28;19932;-71
2023/12/04 01:14:29;;;;;;;;;;;0.60;99.90;;;;;;4981706;28;19948;-71
2023/12/04 01:16:55;;;;;;;;;;;0.60;99.90;;;;;;4963031;28;19959;-71
2023/12/04 01:19:21;;;;;;;;;;;0.50;99.90;;;;;;4998913;28;19932;-73
2023/12/04 01:21:47;;;;;;;;;;;0.60;99.90;;;;;;4970969;28;19924;-72
2023/12/04 01:24:14;;;;;;;;;;;0.60;99.90;;;;;;4997188;28;20454;-72
2023/12/04 01:26:40;;;;;;;;;;;0.60;99.90;;;;;;4963134;28;19924;-72
2023/12/04 01:29:06;;;;;;;;;;;0.60;99.90;;;;;;4990024;28;19936;-72
2023/12/04 01:31:32;;;;;;;;;;;0.60;99.90;;;;;;4944230;28;19935;-73
2023/12/04 01:33:58;;;;;;;;;;;0.60;99.90;;;;;;4994830;28;19933;-73
2023/12/04 01:36:23;;;;;;;;;;;0.60;99.90;;;;;;4950893;28;19936;-72
2023/12/04 01:38:49;;;;;;;;;;;0.60;99.90;;;;;;4965215;28;20580;-72
2023/12/04 01:41:15;;;;;;;;;;;0.60;99.90;;;;;;4945381;28;19929;-73
2023/12/04 01:43:41;;;;;;;;;;;0.60;99.90;;;;;;5001654;28;20516;-74
2023/12/04 01:46:07;;;;;;;;;;;0.60;99.90;;;;;;4945461;28;20516;-73
2023/12/04 01:48:33;;;;;;;;;;;0.60;99.90;;;;;;4987082;28;19932;-73
2023/12/04 01:51:04;;;;;;;;;;;0.60;99.90;;;;;;4955952;28;19930;-72
2023/12/04 01:53:30;;;;;;;;;;;0.60;99.90;;;;;;5000621;28;19929;-73
2023/12/04 01:55:56;;;;;;;;;;;0.60;99.90;;;;;;4957373;28;20974;-73
2023/12/04 01:58:22;;;;;;;;;;;0.60;99.90;;;;;;4973949;28;19925;-72
2023/12/04 02:00:48;;;;;;;;;;;0.60;99.90;;;;;;4958534;28;19940;-73
2023/12/04 02:03:14;;;;;;;;;;;0.60;99.90;;;;;;4984106;28;20007;-73
2023/12/04 02:05:39;;;;;;;;;;;0.60;99.90;;;;;;4981778;28;19952;-72
2023/12/04 02:08:06;;;;;;;;;;;0.60;99.90;;;;;;4949210;28;19925;-72
2023/12/04 02:10:32;;;;;;;;;;;0.60;99.90;;;;;;4989360;28;19936;-74
2023/12/04 02:12:58;;;;;;;;;;;0.60;99.90;;;;;;4980834;28;19929;-73
2023/12/04 02:15:24;;;;;;;;;;;0.60;99.90;;;;;;5003735;28;19932;-73
2023/12/04 02:17:50;;;;;;;;;;;0.60;99.90;;;;;;4947522;28;19956;-74
2023/12/04 02:20:16;;;;;;;;;;;0.60;99.90;;;;;;4984019;28;19932;-73
2023/12/04 02:22:42;;;;;;;;;;;0.60;99.90;;;;;;4957322;28;19932;-74
2023/12/04 02:25:09;;;;;;;;;;;0.70;99.90;;;;;;5000565;28;21030;-73
2023/12/04 02:27:40;;;;;;;;;;;0.60;99.90;;;;;;4959338;28;20564;-73
2023/12/04 02:30:08;;;;;;;;;;;0.60;99.90;;;;;;4966338;28;19936;-75
2023/12/04 02:32:37;;;;;;;;;;;0.60;99.90;;;;;;4971028;28;19995;-73
2023/12/04 02:35:04;;;;;;;;;;;0.60;99.90;;;;;;4984371;28;19929;-74
2023/12/04 02:37:31;;;;;;;;;;;0.70;99.90;;;;;;4957450;28;21052;-73
2023/12/04 02:39:57;;;;;;;;;;;0.70;99.90;;;;;;4986972;28;20682;-75
2023/12/04 02:42:26;;;;;;;;;;;0.60;99.90;;;;;;4962884;28;20674;-75
2023/12/04 02:44:52;;;;;;;;;;;0.60;99.90;;;;;;4985007;28;20021;-75
2023/12/04 02:47:18;;;;;;;;;;;0.60;99.90;;;;;;4972044;28;20429;-74
2023/12/04 02:49:44;;;;;;;;;;;0.70;99.90;;;;;;4985374;28;19936;-75
2023/12/04 02:52:10;;;;;;;;;;;0.70;99.90;;;;;;4963200;28;20065;-71
2023/12/04 02:54:36;;;;;;;;;;;0.70;99.90;;;;;;4986917;28;19932;-72
2023/12/04 02:57:02;;;;;;;;;;;0.70;99.90;;;;;;4958873;28;19933;-72
2023/12/04 02:59:28;;;;;;;;;;;0.70;99.90;;;;;;4981597;28;19929;-72
2023/12/04 03:01:54;;;;;;;;;;;0.70;99.90;;;;;;4964809;28;19924;-71
2023/12/04 03:04:20;;;;;;;;;;;0.70;99.90;;;;;;4988170;28;20948;-71
2023/12/04 03:06:46;;;;;;;;;;;0.70;99.90;;;;;;4949410;28;20001;-70
2023/12/04 03:09:12;;;;;;;;;;;0.70;99.90;;;;;;4988064;28;20534;-71
2023/12/04 03:11:41;;;;;;;;;;;0.60;99.90;;;;;;4978966;28;20357;-72
2023/12/04 03:14:07;;;;;;;;;;;0.60;99.90;;;;;;4996524;28;20403;-71
2023/12/04 03:16:33;;;;;;;;;;;0.70;99.90;;;;;;4956766;28;19932;-72
2023/12/04 03:18:59;;;;;;;;;;;0.60;99.90;;;;;;4983013;28;19936;-71
2023/12/04 03:21:25;;;;;;;;;;;0.70;99.90;;;;;;4956830;28;20062;-71
2023/12/04 03:23:51;;;;;;;;;;;0.70;99.90;;;;;;4984436;28;19925;-71
2023/12/04 03:26:17;;;;;;;;;;;0.70;99.90;;;;;;4960085;28;20456;-71
2023/12/04 03:28:43;;;;;;;;;;;0.70;99.90;;;;;;5004367;28;19929;-71
2023/12/04 03:31:08;;;;;;;;;;;0.70;99.90;;;;;;4959562;28;19928;-70
2023/12/04 03:33:34;;;;;;;;;;;0.70;99.90;;;;;;5005084;28;19933;-71
2023/12/04 03:36:01;;;;;;;;;;;0.70;99.90;;;;;;4955649;28;19932;-70
2023/12/04 03:38:27;;;;;;;;;;;0.70;99.90;;;;;;5000680;28;19925;-71
2023/12/04 03:40:53;;;;;;;;;;;0.80;99.90;;;;;;4957884;28;19935;-70
2023/12/04 03:43:19;;;;;;;;;;;0.80;99.90;;;;;;5002036;28;20652;-71
2023/12/04 03:45:45;;;;;;;;;;;0.80;99.90;;;;;;4956939;28;19932;-71
2023/12/04 03:48:10;;;;;;;;;;;0.80;99.90;;;;;;5003628;28;19924;-71
2023/12/04 03:50:36;;;;;;;;;;;0.80;99.90;;;;;;4980501;28;19929;-71
2023/12/04 03:53:02;;;;;;;;;;;0.80;99.90;;;;;;4959803;28;19924;-71
2023/12/04 03:55:28;;;;;;;;;;;0.80;99.90;;;;;;4965176;28;19929;-72
2023/12/04 03:57:54;;;;;;;;;;;0.80;99.90;;;;;;4969778;28;20422;-70
2023/12/04 04:00:20;;;;;;;;;;;0.80;99.90;;;;;;4982013;28;20052;-70
2023/12/04 04:02:46;;;;;;;;;;;0.80;99.90;;;;;;4974816;28;19936;-71
2023/12/04 04:05:12;;;;;;;;;;;0.80;99.90;;;;;;4984088;28;19932;-71
2023/12/04 04:07:39;;;;;;;;;;;0.80;99.90;;;;;;4971411;28;20242;-71
2023/12/04 04:10:08;;;;;;;;;;;0.80;99.90;;;;;;4982291;28;20483;-70
2023/12/04 04:12:34;;;;;;;;;;;0.80;99.90;;;;;;4970448;28;19936;-71
2023/12/04 04:15:00;;;;;;;;;;;0.80;99.90;;;;;;4983943;28;19925;-71
2023/12/04 04:17:26;;;;;;;;;;;0.80;99.90;;;;;;4982317;28;20479;-71
2023/12/04 04:19:53;;;;;;;;;;;0.80;99.90;;;;;;4979374;28;19925;-71
2023/12/04 04:22:19;;;;;;;;;;;0.80;99.90;;;;;;4978321;28;19928;-70
2023/12/04 04:24:45;;;;;;;;;;;0.80;99.90;;;;;;4986028;28;21027;-70
2023/12/04 04:27:11;;;;;;;;;;;0.80;99.90;;;;;;4974014;28;19931;-71
2023/12/04 04:29:40;;;;;;;;;;;0.90;99.90;;;;;;4977893;28;19932;-70
2023/12/04 04:32:06;;;;;;;;;;;0.80;99.90;;;;;;4964301;28;20946;-70
2023/12/04 04:34:32;;;;;;;;;;;0.80;99.90;;;;;;4985929;28;19933;-70
2023/12/04 04:36:58;;;;;;;;;;;0.80;99.90;;;;;;4955199;28;20060;-70
2023/12/04 04:39:24;;;;;;;;;;;0.90;99.90;;;;;;4989559;28;21009;-70
2023/12/04 04:41:50;;;;;;;;;;;0.80;99.90;;;;;;4967845;28;19931;-70
2023/12/04 04:44:16;;;;;;;;;;;0.80;99.90;;;;;;4982654;28;21203;-69
2023/12/04 04:46:44;;;;;;;;;;;0.80;99.90;;;;;;4940231;28;20371;-70
2023/12/04 04:49:10;;;;;;;;;;;0.90;99.90;;;;;;4992173;28;19932;-70
2023/12/04 04:51:36;;;;;;;;;;;0.90;99.90;;;;;;4956768;28;19938;-71
2023/12/04 04:54:02;;;;;;;;;;;0.90;99.90;;;;;;4992946;28;19932;-70
2023/12/04 04:56:28;;;;;;;;;;;0.90;99.90;;;;;;4944162;28;19938;-70
2023/12/04 04:58:54;;;;;;;;;;;0.90;99.90;;;;;;4954714;28;19929;-70
2023/12/04 05:01:20;;;;;;;;;;;0.80;99.90;;;;;;4954151;28;19928;-70
2023/12/04 05:03:46;;;;;;;;;;;0.80;99.90;;;;;;4979448;28;19925;-70
2023/12/04 05:06:13;;;;;;;;;;;0.80;99.90;;;;;;4953579;28;19932;-70
2023/12/04 05:08:39;;;;;;;;;;;0.80;99.90;;;;;;4994062;28;20029;-69
2023/12/04 05:11:05;;;;;;;;;;;0.80;99.90;;;;;;4956579;28;20894;-70
2023/12/04 05:13:31;;;;;;;;;;;0.80;99.90;;;;;;4976166;28;19936;-69
2023/12/04 05:15:56;;;;;;;;;;;0.80;99.90;;;;;;4951399;28;19925;-70
2023/12/04 05:18:22;;;;;;;;;;;0.80;99.90;;;;;;5011772;28;19925;-69
2023/12/04 05:20:48;;;;;;;;;;;0.80;99.90;;;;;;4950552;28;19929;-70
2023/12/04 05:23:14;;;;;;;;;;;0.90;99.90;;;;;;4983494;28;20955;-68
2023/12/04 05:25:40;;;;;;;;;;;0.80;99.90;;;;;;4973865;28;19925;-68
2023/12/04 05:28:06;;;;;;;;;;;0.80;99.90;;;;;;4992248;28;20732;-69
2023/12/04 05:30:32;;;;;;;;;;;0.80;99.90;;;;;;4989735;28;19929;-69
2023/12/04 05:32:58;;;;;;;;;;;0.90;99.90;;;;;;4960416;28;20487;-69
2023/12/04 05:35:24;;;;;;;;;;;0.90;99.90;;;;;;4980040;28;19925;-69
2023/12/04 05:37:50;;;;;;;;;;;0.80;99.90;;;;;;4956458;28;19929;-69
2023/12/04 05:40:16;;;;;;;;;;;0.80;99.90;;;;;;4980181;28;21081;-69
2023/12/04 05:42:42;;;;;;;;;;;0.80;99.90;;;;;;4974451;28;19936;-70
2023/12/04 05:45:08;;;;;;;;;;;0.90;99.90;;;;;;4981858;28;19925;-70
2023/12/04 05:47:34;;;;;;;;;;;0.90;99.90;;;;;;4980134;28;19928;-70
2023/12/04 05:50:00;;;;;;;;;;;0.80;99.90;;;;;;4983297;28;19932;-69
2023/12/04 05:52:26;;;;;;;;;;;0.80;99.90;;;;;;4967143;28;19929;-70
2023/12/04 05:54:52;;;;;;;;;;;0.80;99.90;;;;;;4984411;28;19925;-69
2023/12/04 05:57:18;;;;;;;;;;;0.80;99.90;;;;;;4966934;28;19929;-70
2023/12/04 05:59:44;;;;;;;;;;;0.90;99.90;;;;;;4979931;28;19925;-70
2023/12/04 06:02:10;;;;;;;;;;;0.90;99.90;;;;;;4966011;28;20375;-70
2023/12/04 06:04:36;;;;;;;;;;;0.80;99.90;;;;;;4983730;28;19925;-69
2023/12/04 06:07:02;;;;;;;;;;;0.80;99.90;;;;;;4959228;28;20958;-71
2023/12/04 06:09:28;;;;;;;;;;;0.80;99.90;;;;;;4984603;28;20031;-72
2023/12/04 06:11:53;;;;;;;;;;;0.80;99.90;;;;;;4954602;28;20441;-72
2023/12/04 06:14:19;;;;;;;;;;;0.80;99.90;;;;;;4990884;28;19933;-73
2023/12/04 06:16:45;;;;;;;;;;;0.80;99.90;;;;;;4968099;28;19924;-72
2023/12/04 06:19:11;;;;;;;;;;;0.80;99.90;;;;;;4995453;28;20611;-72
2023/12/04 06:21:37;;;;;;;;;;;0.80;99.90;;;;;;4961244;28;19935;-73
2023/12/04 06:24:04;;;;;;;;;;;0.80;99.90;;;;;;4989712;28;20222;-72
2023/12/04 06:26:31;;;;;;;;;;;0.80;99.90;;;;;;4956903;28;19924;-72
2023/12/04 06:28:57;;;;;;;;;;;0.80;99.90;;;;;;4987000;28;19935;-72
2023/12/04 06:31:23;;;;;;;;;;;0.80;99.90;;;;;;4954492;28;19929;-72
2023/12/04 06:33:49;;;;;;;;;;;0.80;99.90;;;;;;4984896;28;19945;-72
2023/12/04 06:36:17;;;;;;;;;;;0.80;99.90;;;;;;4961541;28;19925;-71
2023/12/04 06:38:46;;;;;;;;;;;0.80;99.90;;;;;;5001198;28;19952;-72
2023/12/04 06:41:12;;;;;;;;;;;0.70;99.90;;;;;;4962881;28;19935;-71
2023/12/04 06:43:39;;;;;;;;;;;0.70;99.90;;;;;;5000717;28;19929;-71
2023/12/04 06:46:05;;;;;;;;;;;0.70;99.90;;;;;;4959651;28;19980;-71
2023/12/04 06:48:32;;;;;;;;;;;0.70;99.90;;;;;;4972339;28;19934;-71
2023/12/04 06:50:58;;;;;;;;;;;0.70;99.90;;;;;;4954244;28;19929;-72
2023/12/04 06:53:25;;;;;;;;;;;0.60;99.90;;;;;;4992633;28;20315;-70
2023/12/04 06:55:51;;;;;;;;;;;0.70;99.90;;;;;;4952117;28;19929;-71
2023/12/04 06:58:17;;;;;;;;;;;0.60;99.90;;;;;;4999514;28;19924;-71
2023/12/04 07:00:43;;;;;;;;;;;0.60;99.90;;;;;;4965129;28;19929;-69
2023/12/04 07:03:09;;;;;;;;;;;0.60;99.90;;;;;;4974439;28;19935;-70
2023/12/04 07:05:35;;;;;;;;;;;0.60;99.90;;;;;;4977846;28;19932;-70
2023/12/04 07:08:01;;;;;;;;;;;0.60;99.90;;;;;;4973441;28;19925;-70
2023/12/04 07:10:27;;;;;;;;;;;0.60;99.90;;;;;;4976321;28;19929;-71
2023/12/04 07:12:53;;;;;;;;;;;0.60;99.90;;;;;;4957733;28;19925;-72
2023/12/04 07:15:18;;;;;;;;;;;0.60;99.90;;;;;;4978963;28;21017;-70
2023/12/04 07:17:44;;;;;;;;;;;0.60;99.90;;;;;;4970900;28;19932;-69
2023/12/04 07:20:11;;;;;;;;;;;0.60;99.90;;;;;;4980897;28;19936;-69
2023/12/04 07:22:37;;;;;;;;;;;0.60;99.90;;;;;;4959430;28;19925;-70
2023/12/04 07:25:03;;;;;;;;;;;0.60;99.90;;;;;;4981162;28;19925;-69
2023/12/04 07:27:29;;;;;;;;;;;0.60;99.90;;;;;;4984071;28;19924;-69
2023/12/04 07:29:55;;;;;;;;;;;0.70;99.90;;;;;;5012000;28;20029;-69
2023/12/04 07:32:21;;;;;;;;;;;0.60;99.90;;;;;;4977590;28;19939;-69
2023/12/04 07:34:47;;;;;;;;;;;0.60;99.90;;;;;;4982566;28;19932;-69
2023/12/04 07:37:13;;;;;;;;;;;0.60;99.90;;;;;;4956254;28;19929;-69
2023/12/04 07:39:45;;;;;;;;;;;0.70;99.90;;;;;;4964568;28;20015;-68
2023/12/04 07:42:11;;;;;;;;;;;0.70;99.90;;;;;;4966491;28;19948;-66
2023/12/04 07:44:37;;;;;;;;;;;0.70;99.90;;;;;;4985787;28;19925;-68
2023/12/04 07:47:03;;;;;;;;;;;0.70;99.90;;;;;;4964258;28;20082;-68
2023/12/04 07:49:29;;;;;;;;;;;0.70;99.90;;;;;;4964492;28;19925;-67
2023/12/04 07:51:55;;;;;;;;;;;0.70;99.90;;;;;;4959651;28;20229;-68
2023/12/04 07:54:25;;;;;;;;;;;0.70;99.90;;;;;;4980486;28;19925;-67
2023/12/04 07:56:53;;;;;;;;;;;0.70;99.90;;;;;;4966046;28;20083;-67
2023/12/04 07:59:19;;;;;;;;;;;0.80;99.90;;;;;;4981911;28;19929;-68
2023/12/04 08:01:45;;;;;;;;;;;0.80;99.90;;;;;;4959452;28;21383;-68
2023/12/04 08:04:11;;;;;;;;;;;0.80;99.90;;;;;;4988704;28;19925;-69
2023/12/04 08:06:37;;;;;;;;;;;0.80;99.90;;;;;;4941615;28;19924;-67
2023/12/04 08:09:05;;;;;;;;;;;0.80;99.90;;;;;;4967852;28;19929;-68
2023/12/04 08:11:31;;;;;;;;;;;0.90;99.90;;;;;;4959250;28;20423;-68
2023/12/04 08:13:57;;;;;;;;;;;0.80;99.90;;;;;;4990549;28;19972;-68
2023/12/04 08:16:23;;;;;;;;;;;0.90;99.90;;;;;;4957220;28;19925;-67
2023/12/04 08:18:49;;;;;;;;;;;0.90;99.90;;;;;;4979844;28;19929;-68
2023/12/04 08:21:15;;;;;;;;;;;0.90;99.90;;;;;;4958199;28;19935;-68
2023/12/04 08:23:41;;;;;;;;;;;0.90;99.90;;;;;;4982326;28;19928;-70
2023/12/04 08:26:07;;;;;;;;;;;0.90;99.90;;;;;;4956486;28;20564;-68
2023/12/04 08:28:33;;;;;;;;;;;0.90;99.90;;;;;;4996330;28;19932;-67
2023/12/04 08:30:59;;;;;;;;;;;0.90;99.90;;;;;;4953781;28;19934;-67
2023/12/04 08:33:24;;;;;;;;;;;1.00;99.90;;;;;;4997640;28;19931;-67
2023/12/04 08:35:50;;;;;;;;;;;1.00;99.90;;;;;;4954636;28;20457;-67
2023/12/04 08:38:16;;;;;;;;;;;1.00;99.90;;;;;;5003276;28;19931;-68
2023/12/04 08:40:43;;;;;;;;;;;1.00;99.90;;;;;;4965337;28;20445;-68
2023/12/04 08:43:09;;;;;;;;;;;1.00;99.90;;;;;;4990856;28;19929;-67
2023/12/04 08:45:35;;;;;;;;;;;1.00;99.90;;;;;;4979843;28;21140;-68
2023/12/04 08:48:01;;;;;;;;;;;1.00;99.90;;;;;;4956519;28;19925;-68
2023/12/04 08:50:27;;;;;;;;;;;1.10;99.90;;;;;;4962270;28;19932;-68
2023/12/04 08:52:53;;;;;;;;;;;1.10;99.90;;;;;;4950797;28;19928;-68
2023/12/04 08:55:19;;;;;;;;;;;1.10;99.90;;;;;;4945379;28;19936;-67
2023/12/04 08:57:45;;;;;;;;;;;1.10;99.90;;;;;;4954342;28;20020;-69
2023/12/04 09:00:11;;;;;;;;;;;1.10;99.90;;;;;;4964363;28;19925;-67
2023/12/04 09:02:37;;;;;;;;;;;1.20;99.90;;;;;;4964290;28;19936;-68
2023/12/04 09:05:03;;;;;;;;;;;1.20;99.90;;;;;;4962570;28;19926;-68
2023/12/04 09:07:29;;;;;;;;;;;1.20;99.90;;;;;;4975595;28;19935;-68
2023/12/04 09:09:55;;;;;;;;;;;1.20;99.90;;;;;;4993288;28;20025;-68
2023/12/04 09:12:21;;;;;;;;;;;1.20;99.90;;;;;;4955737;28;19941;-68
2023/12/04 09:14:47;;;;;;;;;;;1.30;99.90;;;;;;4982637;28;19936;-68
2023/12/04 09:17:13;;;;;;;;;;;1.30;99.90;;;;;;4967495;28;20418;-68
2023/12/04 09:19:39;;;;;;;;;;;1.30;99.90;;;;;;4984617;28;20334;-68
2023/12/04 09:22:05;;;;;;;;;;;1.40;99.90;;;;;;4974360;28;20413;-68
2023/12/04 09:24:31;;;;;;;;;;;1.40;99.90;;;;;;4990443;28;19925;-68
2023/12/04 09:26:57;;;;;;;;;;;1.40;99.90;;;;;;4962269;28;19932;-68
2023/12/04 09:29:23;;;;;;;;;;;1.50;99.90;;;;;;4987499;28;19925;-69
2023/12/04 09:31:51;;;;;;;;;;;1.50;99.90;;;;;;4956761;28;19940;-69
2023/12/04 09:34:17;;;;;;;;;;;1.50;99.90;;;;;;4981297;28;19929;-68
2023/12/04 09:36:43;;;;;;;;;;;1.60;99.90;;;;;;4963058;28;20398;-68
2023/12/04 09:39:10;;;;;;;;;;;1.60;99.90;;;;;;4991504;28;19929;-68
2023/12/04 09:41:37;;;;;;;;;;;1.60;99.90;;;;;;4956145;28;19932;-68
2023/12/04 09:44:03;;;;;;;;;;;1.60;99.90;;;;;;4992101;28;20939;-68
2023/12/04 09:46:29;;;;;;;;;;;1.70;99.90;;;;;;4951837;28;19929;-68
2023/12/04 09:48:56;;;;;;;;;;;1.70;99.90;;;;;;4971595;28;20948;-68
2023/12/04 09:51:22;;;;;;;;;;;1.70;99.90;;;;;;4955908;28;20392;-68
2023/12/04 09:53:48;;;;;;;;;;;1.70;99.90;;;;;;4977170;28;19940;-67
2023/12/04 09:56:15;;;;;;;;;;;1.80;99.90;;;;;;4956176;28;19932;-67
2023/12/04 09:58:41;;;;;;;;;;;1.80;99.90;;;;;;4981013;28;20376;-68
2023/12/04 10:01:08;;;;;;;;;;;1.90;99.90;;;;;;4954076;28;19925;-68
2023/12/04 10:03:35;;;;;;;;;;;1.90;99.90;;;;;;4996408;28;19933;-68
2023/12/04 10:06:01;;;;;;;;;;;2.00;99.90;;;;;;4951806;28;19924;-68
2023/12/04 10:08:27;;;;;;;;;;;2.00;99.90;;;;;;4996703;28;19925;-68
2023/12/04 10:10:53;;;;;;;;;;;2.10;99.90;;;;;;4938939;28;19925;-68
2023/12/04 10:13:19;;;;;;;;;;;2.10;99.90;;;;;;4986561;28;19929;-68
2023/12/04 10:15:48;;;;;;;;;;;2.10;99.90;;;;;;4954560;28;20147;-68
2023/12/04 10:18:23;;;;;;;;;;;2.10;99.90;;;;;;4997990;28;20451;-68
2023/12/04 10:20:54;;;;;;;;;;;2.10;99.90;;;;;;4952073;28;19968;-68
2023/12/04 10:23:20;;;;;;;;;;;2.10;99.90;;;;;;4998319;28;19932;-71
2023/12/04 10:25:49;;;;;;;;;;;2.10;99.90;;;;;;4955196;28;20422;-69
2023/12/04 10:28:15;;;;;;;;;;;2.10;99.90;;;;;;4988033;28;20461;-69
2023/12/04 10:30:41;;;;;;;;;;;2.10;99.90;;;;;;4969404;28;20596;-70
2023/12/04 10:33:08;;;;;;;;;;;2.10;99.90;;;;;;4970577;28;19929;-70
2023/12/04 10:35:38;;;;;;;;;;;2.10;99.90;;;;;;4983110;28;19925;-68
2023/12/04 10:38:04;;;;;;;;;;;2.10;99.90;;;;;;4933981;28;19925;-68
2023/12/04 10:40:31;;;;;;;;;;;2.00;99.90;;;;;;4993519;28;19932;-67
2023/12/04 10:43:11;;;;;;;;;;;2.00;99.90;;;;;;4960192;28;19931;-68
2023/12/04 10:45:37;;;;;;;;;;;2.10;99.90;;;;;;4973514;28;19925;-69
2023/12/04 10:48:04;;;;;;;;;;;2.10;99.90;;;;;;4950997;28;19925;-68
2023/12/04 10:50:32;;;;;;;;;;;2.10;99.90;;;;;;4963494;28;20534;-67
2023/12/04 10:52:59;;;;;;;;;;;2.10;99.90;;;;;;4984773;28;20536;-68
2023/12/04 10:55:25;;;;;;;;;;;2.10;99.90;;;;;;4993171;28;20315;-68
2023/12/04 10:57:51;;;;;;;;;;;2.10;99.90;;;;;;4993925;28;19924;-68
2023/12/04 11:00:17;;;;;;;;;;;2.20;99.90;;;;;;4992397;28;19933;-67
2023/12/04 11:02:46;;;;;;;;;;;2.20;99.90;;;;;;4978165;28;19925;-68
2023/12/04 11:05:16;;;;;;;;;;;2.20;99.90;;;;;;4992782;28;19925;-68
2023/12/04 11:07:44;;;;;;;;;;;2.30;99.90;;;;;;4954908;28;19925;-67
2023/12/04 11:10:11;;;;;;;;;;;2.40;99.90;;;;;;4961656;28;19933;-68
2023/12/04 11:12:39;;;;;;;;;;;2.40;99.90;;;;;;4973501;28;19932;-67
2023/12/04 11:15:07;;;;;;;;;;;2.50;99.90;;;;;;4993171;28;19933;-68
2023/12/04 11:17:34;;;;;;;;;;;2.60;99.90;;;;;;4949915;28;19932;-67
2023/12/04 11:20:13;;;;;;;;;;;2.60;99.90;;;;;;4961590;28;19941;-68
2023/12/04 11:22:40;;;;;;;;;;;2.70;99.90;;;;;;4968092;28;19931;-67
2023/12/04 11:25:07;;;;;;;;;;;2.70;99.90;;;;;;4983835;28;19929;-68
2023/12/04 11:27:34;;;;;;;;;;;2.70;99.90;;;;;;4968053;28;19925;-68
2023/12/04 11:30:02;;;;;;;;;;;2.70;99.90;;;;;;4983179;28;20951;-67
2023/12/04 11:32:29;;;;;;;;;;;2.70;99.90;;;;;;4973341;28;20525;-68
2023/12/04 11:34:56;;;;;;;;;;;2.70;99.90;;;;;;4967678;28;19954;-67
2023/12/04 11:37:23;;;;;;;;;;;2.70;99.90;;;;;;4978283;28;19924;-67
2023/12/04 11:39:50;;;;;;;;;;;2.80;99.90;;;;;;4984177;28;19925;-67
2023/12/04 11:42:33;;;;;;;;;;;2.70;99.90;;;;;;4968514;28;19925;-70
2023/12/04 11:44:59;;;;;;;;;;;2.80;99.90;;;;;;4982627;28;20614;-70
2023/12/04 11:47:27;;;;;;;;;;;2.80;99.90;;;;;;4954971;28;19925;-71
2023/12/04 11:49:53;;;;;;;;;;;2.80;99.90;;;;;;4980343;28;19929;-72
2023/12/04 11:52:31;;;;;;;;;;;2.80;99.90;;;;;;4978728;28;20689;-71
2023/12/04 11:54:59;;;;;;;;;;;2.80;99.90;;;;;;4984932;28;20771;-72
2023/12/04 11:57:25;;;;;;;;;;;2.80;99.90;;;;;;4968315;28;19952;-71
2023/12/04 11:59:52;;;;;;;;;;;2.80;99.90;;;;;;4985356;28;20690;-72
2023/12/04 12:02:18;;;;;;;;;;;2.80;99.90;;;;;;4945280;28;19924;-73
2023/12/04 12:04:47;;;;;;;;;;;2.80;99.90;;;;;;4983355;28;19925;-72
2023/12/04 12:07:14;;;;;;;;;;;2.80;99.90;;;;;;4970062;28;19925;-72
2023/12/04 12:09:41;;;;;;;;;;;2.80;99.90;;;;;;4966682;28;19930;-72
2023/12/04 12:12:07;;;;;;;;;;;2.80;99.90;;;;;;4965793;28;19935;-72
2023/12/04 12:14:33;;;;;;;;;;;2.90;99.90;;;;;;4986802;28;19940;-72
2023/12/04 12:17:00;;;;;;;;;;;2.90;99.90;;;;;;4976579;28;19929;-71
2023/12/04 12:19:26;;;;;;;;;;;2.90;99.90;;;;;;4973578;28;19925;-68
2023/12/04 12:21:52;;;;;;;;;;;3.00;99.90;;;;;;4964531;28;19936;-69
2023/12/04 12:24:18;;;;;;;;;;;3.00;99.90;;;;;;4991304;28;20319;-69
2023/12/04 12:26:44;;;;;;;;;;;3.10;99.90;;;;;;4961095;28;19932;-68
2023/12/04 12:29:10;;;;;;;;;;;3.10;99.90;;;;;;4993728;28;20371;-69
2023/12/04 12:31:36;;;;;;;;;;;3.10;99.90;;;;;;4957797;28;19925;-68
2023/12/04 12:34:06;;;;;;;;;;;3.10;99.90;;;;;;4972666;28;20247;-68
2023/12/04 12:36:34;;;;;;;;;;;3.10;99.90;;;;;;4959695;28;19931;-70
2023/12/04 12:39:03;;;;;;;;;;;3.10;99.90;;;;;;4993323;28;19925;-70
2023/12/04 12:41:29;;;;;;;;;;;3.10;99.90;;;;;;4959049;28;20525;-70
2023/12/04 12:43:56;;;;;;;;;;;3.10;99.90;;;;;;4984270;28;19932;-70
2023/12/04 12:46:22;;;;;;;;;;;3.10;99.90;;;;;;4962002;28;19929;-70
2023/12/04 12:48:48;;;;;;;;;;;3.10;99.90;;;;;;4982905;28;20498;-70
2023/12/04 12:51:14;;;;;;;;;;;3.10;99.90;;;;;;4960174;28;19924;-71
2023/12/04 12:53:40;;;;;;;;;;;3.10;99.90;;;;;;4991212;28;19933;-72
2023/12/04 12:56:07;;;;;;;;;;;3.10;99.90;;;;;;4984356;28;19995;-72
2023/12/04 12:58:33;;;;;;;;;;;3.10;99.90;;;;;;4992591;28;19932;-70
2023/12/04 13:01:00;;;;;;;;;;;3.10;99.90;;;;;;4954967;28;19938;-71
2023/12/04 13:03:25;;;;;;;;;;;3.20;99.90;;;;;;4998901;28;20435;-71
2023/12/04 13:05:51;;;;;;;;;;;3.10;99.90;;;;;;4950898;28;19992;-71
2023/12/04 13:08:17;;;;;;;;;;;3.10;99.90;;;;;;4998215;28;19925;-71
2023/12/04 13:10:43;;;;;;;;;;;3.10;99.90;;;;;;4957501;28;19932;-70
2023/12/04 13:13:18;;;;;;;;;;;3.10;99.90;;;;;;4985363;28;19956;-71
2023/12/04 13:15:44;;;;;;;;;;;3.10;99.90;;;;;;4950700;28;20870;-72
2023/12/04 13:18:10;;;;;;;;;;;3.10;99.90;;;;;;4995788;28;19929;-70
2023/12/04 13:20:36;;;;;;;;;;;3.10;99.90;;;;;;4979386;28;19924;-71
2023/12/04 13:23:02;;;;;;;;;;;3.10;99.90;;;;;;4966752;28;19955;-71
2023/12/04 13:25:28;;;;;;;;;;;3.10;99.90;;;;;;4981960;28;20884;-70
2023/12/04 13:27:54;;;;;;;;;;;3.10;99.90;;;;;;4953603;28;19932;-72
2023/12/04 13:30:20;;;;;;;;;;;3.10;99.90;;;;;;4980488;28;20596;-72
2023/12/04 13:32:46;;;;;;;;;;;3.10;99.90;;;;;;4981811;28;19933;-71
2023/12/04 13:35:12;;;;;;;;;;;3.10;99.90;;;;;;4965321;28;19925;-72
2023/12/04 13:37:41;;;;;;;;;;;3.10;99.90;;;;;;4941984;28;19932;-72
2023/12/04 13:40:08;;;;;;;;;;;3.20;99.90;;;;;;4979938;28;19940;-71
2023/12/04 13:45:22;;;;;;;;;;;3.10;99.90;;;;;;4986552;28;19925;-71
2023/12/04 13:47:49;;;;;;;;;;;3.10;99.90;;;;;;4975467;28;20495;-72
2023/12/04 13:50:15;;;;;;;;;;;3.10;99.90;;;;;;4983633;28;19925;-72
2023/12/04 13:52:42;;;;;;;;;;;3.00;99.90;;;;;;4973346;28;20013;-73
2023/12/04 13:55:20;;;;;;;;;;;3.00;99.90;;;;;;4984000;28;19932;-72
2023/12/04 13:58:08;;;;;;;;;;;3.00;99.90;;;;;;4941541;28;20346;-71
2023/12/04 14:00:34;;;;;;;;;;;2.90;99.90;;;;;;4965322;28;19924;-71
2023/12/04 14:03:04;;;;;;;;;;;2.90;99.90;;;;;;4953886;28;20514;-71
2023/12/04 14:05:30;;;;;;;;;;;2.70;99.90;;;;;;4983883;28;20562;-72
2023/12/04 14:07:58;;;;;;;;;;;2.70;99.90;;;;;;4971315;28;19929;-73
2023/12/04 14:10:25;;;;;;;;;;;2.70;99.90;;;;;;4985239;28;19925;-73
2023/12/04 14:12:52;;;;;;;;;;;2.70;99.90;;;;;;4960893;28;19940;-72
2023/12/04 14:15:18;;;;;;;;;;;2.60;99.90;;;;;;4987120;28;19936;-72
2023/12/04 14:17:46;;;;;;;;;;;2.60;99.90;;;;;;4976129;28;19931;-72
2023/12/04 14:20:15;;;;;;;;;;;2.50;99.90;;;;;;4985529;28;19929;-71
2023/12/04 14:22:42;;;;;;;;;;;2.50;99.90;;;;;;4975759;28;19940;-72
2023/12/04 14:25:08;;;;;;;;;;;2.40;99.90;;;;;;4985486;28;19932;-70
2023/12/04 14:27:34;;;;;;;;;;;2.40;99.90;;;;;;4978033;28;21235;-72
2023/12/04 14:30:03;;;;;;;;;;;2.30;99.90;;;;;;4986856;28;19928;-72